createdAt,value
2023-01-02T00:00:19.064Z,0
2023-01-02T00:01:11.391Z,0
2023-01-02T00:02:11.127Z,0
2023-01-02T00:03:11.976Z,0
2023-01-02T00:04:11.413Z,0
2023-01-02T00:05:13.958Z,0
2023-01-02T00:06:11.179Z,0
2023-01-02T00:07:11.170Z,0
2023-01-02T00:08:11.202Z,0
2023-01-02T00:09:11.313Z,0
2023-01-02T00:10:11.274Z,0
2023-01-02T00:11:13.937Z,0
2023-01-02T00:12:11.158Z,0
2023-01-02T00:13:11.174Z,0
2023-01-02T00:14:12.178Z,0
2023-01-02T00:15:11.369Z,0
2023-01-02T00:16:14.058Z,0
2023-01-02T00:17:11.145Z,0
2023-01-02T00:18:11.226Z,0
2023-01-02T00:19:11.191Z,0
2023-01-02T00:20:11.175Z,0
2023-01-02T00:21:11.152Z,0
2023-01-02T00:22:11.199Z,0
2023-01-02T00:23:11.193Z,0
2023-01-02T00:24:11.192Z,0
2023-01-02T00:25:11.202Z,0
2023-01-02T00:26:11.222Z,0
2023-01-02T00:27:14.007Z,0
2023-01-02T00:28:11.248Z,0
2023-01-02T00:29:11.192Z,0
2023-01-02T00:30:11.192Z,0
2023-01-02T00:31:11.356Z,0
2023-01-02T00:32:11.430Z,0
2023-01-02T00:33:11.196Z,0
2023-01-02T00:34:11.177Z,0
2023-01-02T00:35:11.208Z,0
2023-01-02T00:36:11.194Z,0
2023-01-02T00:37:11.204Z,0
2023-01-02T00:38:14.373Z,0
2023-01-02T00:39:11.194Z,0
2023-01-02T00:40:11.219Z,0
2023-01-02T00:41:11.228Z,0
2023-01-02T00:42:11.245Z,0
2023-01-02T00:43:11.233Z,0
2023-01-02T00:44:11.281Z,0
2023-01-02T00:45:11.197Z,0
2023-01-02T00:46:18.124Z,0
2023-01-02T00:47:11.428Z,0
2023-01-02T00:48:11.231Z,0
2023-01-02T00:49:13.986Z,0
2023-01-02T00:50:11.194Z,0
2023-01-02T00:51:11.317Z,0
2023-01-02T00:52:11.215Z,0
2023-01-02T00:53:11.201Z,0
2023-01-02T00:54:11.844Z,0
2023-01-02T00:55:11.223Z,0
2023-01-02T00:56:11.235Z,0
2023-01-02T00:57:11.225Z,0
2023-01-02T00:58:11.391Z,0
2023-01-02T00:59:11.241Z,0
2023-01-02T01:00:18.493Z,0
2023-01-02T01:01:11.523Z,0
2023-01-02T01:02:11.728Z,0
2023-01-02T01:03:11.538Z,0
2023-01-02T01:04:11.292Z,0
2023-01-02T01:05:14.028Z,0
2023-01-02T01:06:11.257Z,0
2023-01-02T01:07:11.239Z,0
2023-01-02T01:08:11.257Z,0
2023-01-02T01:09:11.441Z,0
2023-01-02T01:10:11.242Z,0
2023-01-02T01:11:14.381Z,0
2023-01-02T01:12:12.239Z,0
2023-01-02T01:13:11.426Z,0
2023-01-02T01:14:11.277Z,0
2023-01-02T01:15:11.245Z,0
2023-01-02T01:16:14.600Z,0
2023-01-02T01:17:11.251Z,0
2023-01-02T01:18:11.269Z,0
2023-01-02T01:19:11.301Z,0
2023-01-02T01:20:11.362Z,0
2023-01-02T01:21:11.245Z,0
2023-01-02T01:22:14.254Z,0
2023-01-02T01:23:11.265Z,0
2023-01-02T01:24:11.286Z,0
2023-01-02T01:25:12.311Z,0
2023-01-02T01:26:11.245Z,0
2023-01-02T01:27:14.057Z,0
2023-01-02T01:28:11.444Z,0
2023-01-02T01:29:11.424Z,0
2023-01-02T01:30:11.304Z,0
2023-01-02T01:31:11.649Z,0
2023-01-02T01:32:11.314Z,0
2023-01-02T01:33:14.314Z,0
2023-01-02T01:34:11.306Z,0
2023-01-02T01:35:11.289Z,0
2023-01-02T01:36:11.359Z,0
2023-01-02T01:37:11.321Z,0
2023-01-02T01:38:14.326Z,0
2023-01-02T01:39:11.384Z,0
2023-01-02T01:40:11.445Z,0
2023-01-02T01:41:11.321Z,0
2023-01-02T01:42:11.284Z,0
2023-01-02T01:43:11.318Z,0
2023-01-02T01:44:14.433Z,0
2023-01-02T01:45:11.275Z,0
2023-01-02T01:46:11.577Z,0
2023-01-02T01:47:11.261Z,0
2023-01-02T01:48:11.282Z,0
2023-01-02T01:49:12.528Z,0
2023-01-02T01:50:12.772Z,0
2023-01-02T01:51:11.297Z,0
2023-01-02T01:52:11.390Z,0
2023-01-02T01:53:11.346Z,0
2023-01-02T01:54:11.351Z,0
2023-01-02T01:55:11.312Z,0
2023-01-02T01:56:11.294Z,0
2023-01-02T01:57:11.326Z,0
2023-01-02T01:58:12.343Z,0
2023-01-02T01:59:11.557Z,0
2023-01-02T02:00:14.179Z,0
2023-01-02T02:01:11.693Z,0
2023-01-02T02:02:12.454Z,0
2023-01-02T02:03:11.679Z,0
2023-01-02T02:04:11.410Z,0
2023-01-02T02:05:11.350Z,0
2023-01-02T02:06:11.490Z,0
2023-01-02T02:07:11.322Z,0
2023-01-02T02:08:11.384Z,0
2023-01-02T02:09:11.479Z,0
2023-01-02T02:10:11.348Z,0
2023-01-02T02:11:11.486Z,0
2023-01-02T02:12:11.325Z,0
2023-01-02T02:13:11.305Z,0
2023-01-02T02:14:11.385Z,0
2023-01-02T02:15:11.305Z,0
2023-01-02T02:16:11.579Z,0
2023-01-02T02:17:11.360Z,0
2023-01-02T02:18:11.351Z,0
2023-01-02T02:19:11.415Z,0
2023-01-02T02:20:11.483Z,0
2023-01-02T02:21:11.336Z,0
2023-01-02T02:22:11.338Z,0
2023-01-02T02:23:11.344Z,0
2023-01-02T02:24:12.453Z,0
2023-01-02T02:25:11.346Z,0
2023-01-02T02:26:11.369Z,0
2023-01-02T02:27:14.185Z,0
2023-01-02T02:28:11.350Z,0
2023-01-02T02:29:11.368Z,0
2023-01-02T02:30:11.357Z,0
2023-01-02T02:31:11.444Z,0
2023-01-02T02:32:14.631Z,0
2023-01-02T02:33:11.366Z,0
2023-01-02T02:34:11.402Z,0
2023-01-02T02:35:11.363Z,0
2023-01-02T02:36:11.372Z,0
2023-01-02T02:37:11.368Z,0
2023-01-02T02:38:14.200Z,0
2023-01-02T02:39:11.410Z,0
2023-01-02T02:40:11.505Z,0
2023-01-02T02:41:11.364Z,0
2023-01-02T02:42:11.385Z,0
2023-01-02T02:43:14.526Z,0
2023-01-02T02:44:11.415Z,0
2023-01-02T02:45:11.428Z,0
2023-01-02T02:46:11.596Z,0
2023-01-02T02:47:11.375Z,0
2023-01-02T02:48:11.363Z,0
2023-01-02T02:49:11.458Z,0
2023-01-02T02:50:11.412Z,0
2023-01-02T02:51:11.428Z,0
2023-01-02T02:52:11.479Z,0
2023-01-02T02:53:11.446Z,0
2023-01-02T02:54:11.659Z,0
2023-01-02T02:55:11.414Z,0
2023-01-02T02:56:11.556Z,0
2023-01-02T02:57:11.408Z,0
2023-01-02T02:58:11.396Z,0
2023-01-02T02:59:11.514Z,0
2023-01-02T03:00:11.390Z,0
2023-01-02T03:01:11.775Z,0
2023-01-02T03:02:12.425Z,0
2023-01-02T03:03:12.043Z,0
2023-01-02T03:04:11.430Z,0
2023-01-02T03:05:14.467Z,0
2023-01-02T03:06:11.406Z,0
2023-01-02T03:07:11.434Z,0
2023-01-02T03:08:11.427Z,0
2023-01-02T03:09:11.464Z,0
2023-01-02T03:10:11.466Z,0
2023-01-02T03:11:11.430Z,0
2023-01-02T03:12:11.553Z,0
2023-01-02T03:13:11.459Z,0
2023-01-02T03:14:14.451Z,0
2023-01-02T03:15:11.553Z,0
2023-01-02T03:16:14.704Z,0
2023-01-02T03:17:11.505Z,0
2023-01-02T03:18:11.489Z,0
2023-01-02T03:19:11.456Z,0
2023-01-02T03:20:11.589Z,0
2023-01-02T03:21:14.629Z,0
2023-01-02T03:22:11.454Z,0
2023-01-02T03:23:11.480Z,0
2023-01-02T03:24:11.449Z,0
2023-01-02T03:25:11.467Z,0
2023-01-02T03:26:11.438Z,0
2023-01-02T03:27:14.642Z,0
2023-01-02T03:28:11.459Z,0
2023-01-02T03:29:11.457Z,0
2023-01-02T03:30:11.475Z,0
2023-01-02T03:31:11.797Z,0
2023-01-02T03:32:12.508Z,0
2023-01-02T03:33:11.478Z,0
2023-01-02T03:34:11.480Z,0
2023-01-02T03:35:11.483Z,0
2023-01-02T03:36:11.609Z,0
2023-01-02T03:37:11.612Z,0
2023-01-02T03:38:14.233Z,0
2023-01-02T03:39:11.488Z,0
2023-01-02T03:40:11.479Z,0
2023-01-02T03:41:11.480Z,0
2023-01-02T03:42:11.476Z,0
2023-01-02T03:43:14.337Z,0
2023-01-02T03:44:11.522Z,0
2023-01-02T03:45:11.486Z,0
2023-01-02T03:46:11.726Z,0
2023-01-02T03:47:11.648Z,0
2023-01-02T03:48:11.464Z,0
2023-01-02T03:49:14.518Z,0
2023-01-02T03:50:11.504Z,0
2023-01-02T03:51:11.495Z,0
2023-01-02T03:52:11.527Z,0
2023-01-02T03:53:11.527Z,0
2023-01-02T03:54:14.533Z,0
2023-01-02T03:55:11.538Z,0
2023-01-02T03:56:11.500Z,0
2023-01-02T03:57:11.495Z,0
2023-01-02T03:58:11.499Z,0
2023-01-02T03:59:11.588Z,0
2023-01-02T04:00:14.766Z,0
2023-01-02T04:01:12.077Z,0
2023-01-02T04:02:12.280Z,0
2023-01-02T04:03:11.814Z,0
2023-01-02T04:04:11.508Z,0
2023-01-02T04:05:14.353Z,0
2023-01-02T04:06:11.531Z,0
2023-01-02T04:07:11.501Z,0
2023-01-02T04:08:11.501Z,0
2023-01-02T04:09:11.551Z,0
2023-01-02T04:10:11.518Z,0
2023-01-02T04:11:14.328Z,0
2023-01-02T04:12:11.520Z,0
2023-01-02T04:13:11.565Z,0
2023-01-02T04:14:11.503Z,0
2023-01-02T04:15:11.675Z,0
2023-01-02T04:16:14.875Z,0
2023-01-02T04:17:11.519Z,0
2023-01-02T04:18:11.545Z,0
2023-01-02T04:19:11.646Z,0
2023-01-02T04:20:11.568Z,0
2023-01-02T04:21:11.558Z,0
2023-01-02T04:22:11.529Z,0
2023-01-02T04:23:11.537Z,0
2023-01-02T04:24:11.588Z,0
2023-01-02T04:25:11.608Z,0
2023-01-02T04:26:11.523Z,0
2023-01-02T04:27:14.556Z,0
2023-01-02T04:28:11.539Z,0
2023-01-02T04:29:11.541Z,0
2023-01-02T04:30:11.563Z,0
2023-01-02T04:31:11.948Z,0
2023-01-02T04:32:11.547Z,0
2023-01-02T04:33:11.577Z,0
2023-01-02T04:34:11.577Z,0
2023-01-02T04:35:11.459Z,0
2023-01-02T04:36:11.644Z,0
2023-01-02T04:37:11.554Z,0
2023-01-02T04:38:11.560Z,0
2023-01-02T04:39:11.555Z,0
2023-01-02T04:40:11.600Z,0
2023-01-02T04:41:11.636Z,0
2023-01-02T04:42:11.789Z,0
2023-01-02T04:43:11.669Z,0
2023-01-02T04:44:11.621Z,0
2023-01-02T04:45:11.615Z,0
2023-01-02T04:46:11.903Z,0
2023-01-02T04:47:14.362Z,0
2023-01-02T04:48:11.559Z,0
2023-01-02T04:49:11.575Z,0
2023-01-02T04:50:11.626Z,0
2023-01-02T04:51:11.640Z,0
2023-01-02T04:52:11.655Z,0
2023-01-02T04:53:11.629Z,0
2023-01-02T04:54:14.577Z,0
2023-01-02T04:55:11.654Z,0
2023-01-02T04:56:11.623Z,0
2023-01-02T04:57:11.631Z,0
2023-01-02T04:58:13.841Z,0
2023-01-02T04:59:14.686Z,0
2023-01-02T05:00:11.607Z,0
2023-01-02T05:01:11.862Z,0
2023-01-02T05:02:13.196Z,0
2023-01-02T05:03:11.975Z,0
2023-01-02T05:04:11.607Z,0
2023-01-02T05:05:11.769Z,0
2023-01-02T05:06:11.595Z,0
2023-01-02T05:07:11.631Z,0
2023-01-02T05:08:19.114Z,0
2023-01-02T05:09:11.728Z,0
2023-01-02T05:10:14.685Z,0
2023-01-02T05:11:11.594Z,0
2023-01-02T05:12:11.600Z,0
2023-01-02T05:13:11.634Z,0
2023-01-02T05:14:14.788Z,0
2023-01-02T05:15:11.637Z,0
2023-01-02T05:16:15.134Z,0
2023-01-02T05:17:11.617Z,0
2023-01-02T05:18:11.614Z,0
2023-01-02T05:19:11.686Z,0
2023-01-02T05:20:11.691Z,0
2023-01-02T05:21:11.800Z,0
2023-01-02T05:22:11.623Z,0
2023-01-02T05:23:11.647Z,0
2023-01-02T05:24:11.604Z,0
2023-01-02T05:25:11.652Z,0
2023-01-02T05:26:11.644Z,0
2023-01-02T05:27:11.616Z,0
2023-01-02T05:28:11.610Z,0
2023-01-02T05:29:11.669Z,0
2023-01-02T05:36:13.015Z,0
2023-01-02T05:37:11.655Z,0
2023-01-02T05:38:14.757Z,0
2023-01-02T05:39:11.682Z,0
2023-01-02T05:40:11.647Z,0
2023-01-02T05:41:11.731Z,0
2023-01-02T05:42:11.655Z,0
2023-01-02T05:43:11.641Z,0
2023-01-02T05:44:14.721Z,0
2023-01-02T05:45:11.746Z,0
2023-01-02T05:46:12.078Z,0
2023-01-02T05:47:18.970Z,0
2023-01-02T05:48:11.854Z,0
2023-01-02T05:49:11.639Z,0
2023-01-02T05:50:11.647Z,0
2023-01-02T05:51:11.668Z,0
2023-01-02T05:52:13.922Z,0
2023-01-02T05:53:11.681Z,0
2023-01-02T05:54:11.653Z,0
2023-01-02T05:55:14.483Z,0
2023-01-02T05:56:11.711Z,0
2023-01-02T05:57:11.661Z,0
2023-01-02T05:58:11.666Z,0
2023-01-02T05:59:11.669Z,0
2023-01-02T06:00:14.851Z,0
2023-01-02T06:01:11.826Z,0
2023-01-02T06:02:12.319Z,0
2023-01-02T06:03:12.382Z,0
2023-01-02T06:04:16.145Z,0
2023-01-02T06:05:11.704Z,0
2023-01-02T06:06:14.512Z,0
2023-01-02T06:07:11.768Z,0
2023-01-02T06:08:11.816Z,0
2023-01-02T06:09:11.707Z,0
2023-01-02T06:10:11.756Z,0
2023-01-02T06:11:14.863Z,0
2023-01-02T06:12:11.699Z,0
2023-01-02T06:13:11.716Z,0
2023-01-02T06:14:11.767Z,0
2023-01-02T06:15:11.726Z,0
2023-01-02T06:16:12.071Z,0
2023-01-02T06:17:14.664Z,0
2023-01-02T06:18:11.728Z,0
2023-01-02T06:19:11.713Z,0
2023-01-02T06:20:11.740Z,0
2023-01-02T06:21:11.739Z,0
2023-01-02T06:22:14.832Z,0
2023-01-02T06:23:11.746Z,0
2023-01-02T06:24:11.829Z,0
2023-01-02T06:25:11.773Z,0
2023-01-02T06:26:11.741Z,0
2023-01-02T06:27:11.803Z,0
2023-01-02T06:28:14.793Z,0
2023-01-02T06:29:11.808Z,0
2023-01-02T06:30:11.772Z,0
2023-01-02T06:31:12.118Z,0
2023-01-02T06:32:12.108Z,0
2023-01-02T06:33:14.802Z,0
2023-01-02T06:34:11.774Z,0
2023-01-02T06:35:11.749Z,0
2023-01-02T06:36:11.764Z,0
2023-01-02T06:37:16.820Z,0
2023-01-02T06:38:11.742Z,0
2023-01-02T06:39:11.784Z,0
2023-01-02T06:40:11.820Z,0
2023-01-02T06:41:11.803Z,0
2023-01-02T06:42:11.757Z,0
2023-01-02T06:43:11.796Z,0
2023-01-02T06:44:11.784Z,0
2023-01-02T06:45:11.803Z,0
2023-01-02T06:46:12.129Z,0
2023-01-02T06:47:11.753Z,0
2023-01-02T06:48:11.899Z,0
2023-01-02T06:49:11.779Z,0
2023-01-02T06:50:11.798Z,0
2023-01-02T06:51:11.771Z,0
2023-01-02T06:52:11.781Z,0
2023-01-02T06:53:11.824Z,4
2023-01-02T06:54:11.790Z,4
2023-01-02T06:55:11.761Z,0
2023-01-02T06:56:11.927Z,0
2023-01-02T06:57:11.798Z,0
2023-01-02T06:58:23.933Z,4
2023-01-02T06:59:11.885Z,0
2023-01-02T07:00:15.054Z,0
2023-01-02T07:01:12.242Z,0
2023-01-02T07:02:12.222Z,0
2023-01-02T07:03:12.033Z,0
2023-01-02T07:04:11.795Z,0
2023-01-02T07:05:11.823Z,4
2023-01-02T07:06:11.878Z,4
2023-01-02T07:07:11.767Z,0
2023-01-02T07:08:11.758Z,4
2023-01-02T07:09:11.796Z,4
2023-01-02T07:10:11.815Z,4
2023-01-02T07:11:14.615Z,4
2023-01-02T07:12:11.974Z,4
2023-01-02T07:13:11.876Z,4
2023-01-02T07:14:11.841Z,4
2023-01-02T07:15:11.869Z,4
2023-01-02T07:16:16.009Z,4
2023-01-02T07:17:11.816Z,4
2023-01-02T07:18:11.835Z,4
2023-01-02T07:19:11.824Z,8
2023-01-02T07:20:11.903Z,8
2023-01-02T07:21:11.903Z,8
2023-01-02T07:22:14.637Z,12
2023-01-02T07:23:11.826Z,12
2023-01-02T07:24:11.836Z,16
2023-01-02T07:25:11.677Z,16
2023-01-02T07:26:11.834Z,16
2023-01-02T07:27:14.628Z,20
2023-01-02T07:28:11.843Z,16
2023-01-02T07:29:11.831Z,20
2023-01-02T07:30:11.846Z,24
2023-01-02T07:31:11.891Z,28
2023-01-02T07:32:12.078Z,28
2023-01-02T07:33:14.652Z,28
2023-01-02T07:34:11.822Z,32
2023-01-02T07:35:11.867Z,36
2023-01-02T07:36:11.930Z,36
2023-01-02T07:37:11.848Z,36
2023-01-02T07:38:14.756Z,36
2023-01-02T07:39:12.005Z,36
2023-01-02T07:40:11.994Z,36
2023-01-02T07:41:11.859Z,36
2023-01-02T07:42:11.885Z,36
2023-01-02T07:43:11.898Z,36
2023-01-02T07:44:11.861Z,32
2023-01-02T07:45:11.908Z,32
2023-01-02T07:46:12.143Z,36
2023-01-02T07:47:11.935Z,36
2023-01-02T07:48:11.843Z,36
2023-01-02T07:49:14.660Z,36
2023-01-02T07:50:11.868Z,40
2023-01-02T07:51:11.974Z,40
2023-01-02T07:52:11.932Z,44
2023-01-02T07:53:11.901Z,48
2023-01-02T07:54:11.912Z,56
2023-01-02T07:55:12.020Z,56
2023-01-02T07:56:12.052Z,56
2023-01-02T07:57:11.883Z,52
2023-01-02T07:58:11.893Z,56
2023-01-02T07:59:11.974Z,60
2023-01-02T08:00:14.955Z,60
2023-01-02T08:01:13.274Z,64
2023-01-02T08:02:12.475Z,64
2023-01-02T08:03:11.907Z,64
2023-01-02T08:04:12.161Z,68
2023-01-02T08:05:11.972Z,68
2023-01-02T08:06:11.889Z,68
2023-01-02T08:07:11.894Z,72
2023-01-02T08:08:11.952Z,72
2023-01-02T08:09:11.942Z,80
2023-01-02T08:10:11.872Z,84
2023-01-02T08:11:14.967Z,84
2023-01-02T08:12:11.866Z,88
2023-01-02T08:13:12.126Z,88
2023-01-02T08:14:11.943Z,92
2023-01-02T08:15:12.009Z,92
2023-01-02T08:16:12.000Z,96
2023-01-02T08:17:12.217Z,100
2023-01-02T08:18:11.985Z,100
2023-01-02T08:19:12.025Z,104
2023-01-02T08:20:15.087Z,104
2023-01-02T08:21:11.941Z,104
2023-01-02T08:22:14.800Z,108
2023-01-02T08:23:11.964Z,112
2023-01-02T08:24:12.089Z,116
2023-01-02T08:25:12.053Z,124
2023-01-02T08:26:11.913Z,128
2023-01-02T08:27:13.014Z,136
2023-01-02T08:28:12.041Z,144
2023-01-02T08:29:11.984Z,148
2023-01-02T08:30:11.895Z,156
2023-01-02T08:31:12.248Z,164
2023-01-02T08:32:11.996Z,172
2023-01-02T08:33:15.066Z,172
2023-01-02T08:34:11.924Z,176
2023-01-02T08:35:11.961Z,176
2023-01-02T08:36:11.915Z,180
2023-01-02T08:37:12.101Z,180
2023-01-02T08:38:14.946Z,176
2023-01-02T08:39:11.931Z,176
2023-01-02T08:40:11.988Z,176
2023-01-02T08:41:11.970Z,176
2023-01-02T08:42:11.935Z,176
2023-01-02T08:43:11.950Z,176
2023-01-02T08:44:15.031Z,176
2023-01-02T08:45:11.942Z,176
2023-01-02T08:46:12.453Z,172
2023-01-02T08:47:12.060Z,176
2023-01-02T08:48:28.248Z,172
2023-01-02T08:49:14.935Z,172
2023-01-02T08:50:11.966Z,172
2023-01-02T08:51:14.983Z,184
2023-01-02T08:52:12.040Z,204
2023-01-02T08:53:19.456Z,212
2023-01-02T08:54:12.041Z,216
2023-01-02T08:55:14.819Z,212
2023-01-02T08:56:12.001Z,212
2023-01-02T08:57:12.011Z,220
2023-01-02T08:58:12.067Z,220
2023-01-02T08:59:12.064Z,232
2023-01-02T09:00:14.963Z,236
2023-01-02T09:01:12.260Z,240
2023-01-02T09:02:12.664Z,244
2023-01-02T09:03:12.488Z,248
2023-01-02T09:04:20.262Z,248
2023-01-02T09:05:12.065Z,252
2023-01-02T09:06:15.366Z,256
2023-01-02T09:07:12.059Z,252
2023-01-02T09:08:12.041Z,252
2023-01-02T09:09:18.205Z,248
2023-01-02T09:10:12.093Z,244
2023-01-02T09:11:12.040Z,240
2023-01-02T09:12:11.998Z,240
2023-01-02T09:13:12.088Z,240
2023-01-02T09:14:12.028Z,240
2023-01-02T09:15:12.009Z,236
2023-01-02T09:16:12.342Z,232
2023-01-02T09:17:12.040Z,232
2023-01-02T09:18:11.991Z,220
2023-01-02T09:19:12.054Z,216
2023-01-02T09:20:12.039Z,216
2023-01-02T09:21:12.066Z,212
2023-01-02T09:22:12.037Z,208
2023-01-02T09:23:12.038Z,212
2023-01-02T09:24:12.011Z,220
2023-01-02T09:25:12.072Z,224
2023-01-02T09:26:12.050Z,232
2023-01-02T09:27:15.289Z,236
2023-01-02T09:28:12.015Z,236
2023-01-02T09:29:12.123Z,240
2023-01-02T09:30:12.064Z,240
2023-01-02T09:31:18.901Z,240
2023-01-02T09:32:12.040Z,236
2023-01-02T09:33:12.071Z,236
2023-01-02T09:34:12.045Z,236
2023-01-02T09:35:12.082Z,240
2023-01-02T09:36:12.035Z,244
2023-01-02T09:37:12.712Z,248
2023-01-02T09:38:15.172Z,260
2023-01-02T09:39:12.060Z,268
2023-01-02T09:40:12.027Z,268
2023-01-02T09:41:12.028Z,272
2023-01-02T09:42:12.171Z,268
2023-01-02T09:43:16.261Z,268
2023-01-02T09:44:12.071Z,272
2023-01-02T09:45:15.940Z,276
2023-01-02T09:46:12.344Z,280
2023-01-02T09:47:14.863Z,288
2023-01-02T09:48:12.038Z,288
2023-01-02T09:49:14.812Z,288
2023-01-02T09:50:12.073Z,284
2023-01-02T09:51:14.752Z,296
2023-01-02T09:52:12.091Z,304
2023-01-02T09:53:12.057Z,300
2023-01-02T09:54:15.311Z,312
2023-01-02T09:55:12.125Z,312
2023-01-02T09:56:12.058Z,316
2023-01-02T09:57:12.119Z,324
2023-01-02T09:58:12.085Z,324
2023-01-02T09:59:12.219Z,348
2023-01-02T10:00:14.909Z,340
2023-01-02T10:01:12.121Z,344
2023-01-02T10:02:12.939Z,340
2023-01-02T10:03:15.838Z,340
2023-01-02T10:04:12.331Z,344
2023-01-02T10:05:15.118Z,332
2023-01-02T10:06:12.080Z,324
2023-01-02T10:07:12.215Z,324
2023-01-02T10:08:12.105Z,328
2023-01-02T10:09:12.124Z,344
2023-01-02T10:10:12.108Z,364
2023-01-02T10:11:14.861Z,384
2023-01-02T10:12:12.152Z,412
2023-01-02T10:13:12.107Z,404
2023-01-02T10:14:44.863Z,412
2023-01-02T10:15:12.107Z,416
2023-01-02T10:16:15.330Z,400
2023-01-02T10:17:12.126Z,348
2023-01-02T10:18:12.132Z,328
2023-01-02T10:19:12.102Z,332
2023-01-02T10:20:12.110Z,324
2023-01-02T10:21:12.113Z,288
2023-01-02T10:22:12.117Z,288
2023-01-02T10:23:12.136Z,284
2023-01-02T10:24:12.126Z,284
2023-01-02T10:25:12.320Z,280
2023-01-02T10:26:12.252Z,280
2023-01-02T10:27:15.852Z,288
2023-01-02T10:28:12.119Z,288
2023-01-02T10:29:12.107Z,296
2023-01-02T10:30:12.207Z,308
2023-01-02T10:31:14.643Z,316
2023-01-02T10:32:12.187Z,300
2023-01-02T10:33:12.188Z,300
2023-01-02T10:34:12.180Z,304
2023-01-02T10:35:12.151Z,300
2023-01-02T10:36:12.150Z,292
2023-01-02T10:37:15.061Z,292
2023-01-02T10:38:15.314Z,304
2023-01-02T10:39:12.165Z,312
2023-01-02T10:40:12.141Z,316
2023-01-02T10:41:12.135Z,336
2023-01-02T10:42:12.307Z,324
2023-01-02T10:43:12.266Z,328
2023-01-02T10:44:12.174Z,336
2023-01-02T10:45:12.179Z,352
2023-01-02T10:46:12.658Z,372
2023-01-02T10:47:12.201Z,316
2023-01-02T10:48:12.204Z,296
2023-01-02T10:49:15.242Z,292
2023-01-02T10:50:12.060Z,300
2023-01-02T10:51:12.231Z,304
2023-01-02T10:52:12.172Z,316
2023-01-02T10:53:13.208Z,312
2023-01-02T10:54:15.216Z,304
2023-01-02T10:55:17.723Z,292
2023-01-02T10:56:12.198Z,296
2023-01-02T10:57:12.207Z,296
2023-01-02T10:58:12.193Z,296
2023-01-02T10:59:12.222Z,292
2023-01-02T11:00:15.300Z,300
2023-01-02T11:01:12.651Z,300
2023-01-02T11:02:12.735Z,296
2023-01-02T11:03:12.530Z,292
2023-01-02T11:04:12.252Z,288
2023-01-02T11:05:14.913Z,296
2023-01-02T11:06:42.055Z,304
2023-01-02T11:07:12.249Z,312
2023-01-02T11:08:12.208Z,312
2023-01-02T11:09:12.181Z,308
2023-01-02T11:10:12.289Z,312
2023-01-02T11:11:15.260Z,312
2023-01-02T11:12:12.244Z,304
2023-01-02T11:13:12.189Z,308
2023-01-02T11:14:12.218Z,316
2023-01-02T11:15:12.252Z,320
2023-01-02T11:16:15.368Z,312
2023-01-02T11:17:12.187Z,296
2023-01-02T11:18:12.180Z,292
2023-01-02T11:19:12.261Z,292
2023-01-02T11:20:12.249Z,308
2023-01-02T11:21:12.203Z,320
2023-01-02T11:22:12.501Z,324
2023-01-02T11:23:12.286Z,332
2023-01-02T11:24:12.261Z,384
2023-01-02T11:25:12.249Z,412
2023-01-02T11:26:12.252Z,404
2023-01-02T11:27:15.319Z,376
2023-01-02T11:28:12.255Z,340
2023-01-02T11:29:12.207Z,344
2023-01-02T11:30:12.217Z,352
2023-01-02T11:31:12.697Z,324
2023-01-02T11:32:12.849Z,364
2023-01-02T11:33:12.270Z,384
2023-01-02T11:34:12.252Z,400
2023-01-02T11:35:12.216Z,404
2023-01-02T11:36:12.341Z,404
2023-01-02T11:37:12.257Z,412
2023-01-02T11:38:12.399Z,412
2023-01-02T11:39:12.222Z,420
2023-01-02T11:40:12.266Z,416
2023-01-02T11:41:12.215Z,408
2023-01-02T11:42:12.346Z,388
2023-01-02T11:43:12.297Z,368
2023-01-02T11:44:18.745Z,344
2023-01-02T11:45:12.235Z,320
2023-01-02T11:46:12.554Z,300
2023-01-02T11:47:12.309Z,280
2023-01-02T11:48:12.374Z,256
2023-01-02T11:49:12.212Z,256
2023-01-02T11:50:12.313Z,252
2023-01-02T11:51:17.682Z,252
2023-01-02T11:52:12.284Z,256
2023-01-02T11:53:12.326Z,276
2023-01-02T11:54:15.072Z,280
2023-01-02T11:55:12.327Z,300
2023-01-02T11:56:12.294Z,300
2023-01-02T11:57:18.995Z,296
2023-01-02T11:58:12.464Z,276
2023-01-02T11:59:13.256Z,260
2023-01-02T12:00:12.330Z,284
2023-01-02T12:01:12.386Z,284
2023-01-02T12:02:13.083Z,288
2023-01-02T12:03:19.279Z,272
2023-01-02T12:04:12.450Z,264
2023-01-02T12:05:15.440Z,256
2023-01-02T12:06:12.361Z,240
2023-01-02T12:07:12.361Z,236
2023-01-02T12:08:12.350Z,232
2023-01-02T12:09:12.373Z,236
2023-01-02T12:10:15.287Z,232
2023-01-02T12:11:12.326Z,236
2023-01-02T12:12:12.394Z,236
2023-01-02T12:13:12.320Z,236
2023-01-02T12:14:12.483Z,252
2023-01-02T12:15:12.367Z,232
2023-01-02T12:16:15.812Z,232
2023-01-02T12:17:12.376Z,244
2023-01-02T12:18:12.375Z,244
2023-01-02T12:19:12.495Z,244
2023-01-02T12:20:13.079Z,248
2023-01-02T12:21:15.298Z,252
2023-01-02T12:22:12.416Z,260
2023-01-02T12:23:12.357Z,256
2023-01-02T12:24:12.333Z,264
2023-01-02T12:25:12.300Z,260
2023-01-02T12:26:16.017Z,264
2023-01-02T12:27:15.372Z,260
2023-01-02T12:28:12.379Z,264
2023-01-02T12:29:12.365Z,264
2023-01-02T12:30:12.368Z,256
2023-01-02T12:31:12.352Z,256
2023-01-02T12:32:15.732Z,252
2023-01-02T12:33:12.398Z,248
2023-01-02T12:34:12.397Z,252
2023-01-02T12:35:13.344Z,256
2023-01-02T12:36:12.316Z,260
2023-01-02T12:37:15.460Z,268
2023-01-02T12:38:19.581Z,284
2023-01-02T12:39:12.362Z,292
2023-01-02T12:40:12.318Z,308
2023-01-02T12:41:12.350Z,324
2023-01-02T12:42:12.505Z,336
2023-01-02T12:43:15.206Z,340
2023-01-02T12:44:12.388Z,348
2023-01-02T12:45:12.341Z,356
2023-01-02T12:46:12.912Z,356
2023-01-02T12:47:12.381Z,348
2023-01-02T12:48:15.372Z,332
2023-01-02T12:49:12.254Z,316
2023-01-02T12:50:12.195Z,308
2023-01-02T12:51:12.425Z,308
2023-01-02T12:52:12.378Z,300
2023-01-02T12:53:12.448Z,284
2023-01-02T12:54:26.586Z,272
2023-01-02T12:55:12.372Z,268
2023-01-02T12:56:12.401Z,260
2023-01-02T12:57:15.722Z,260
2023-01-02T12:58:12.426Z,260
2023-01-02T12:59:12.393Z,264
2023-01-02T13:00:12.412Z,260
2023-01-02T13:01:12.847Z,252
2023-01-02T13:02:13.672Z,244
2023-01-02T13:03:15.792Z,236
2023-01-02T13:04:12.385Z,228
2023-01-02T13:05:15.501Z,224
2023-01-02T13:06:49.428Z,216
2023-01-02T13:07:12.432Z,216
2023-01-02T13:08:12.426Z,212
2023-01-02T13:09:15.703Z,204
2023-01-02T13:10:15.227Z,196
2023-01-02T13:11:12.570Z,196
2023-01-02T13:12:12.635Z,192
2023-01-02T13:13:12.436Z,188
2023-01-02T13:14:12.448Z,184
2023-01-02T13:15:12.472Z,184
2023-01-02T13:16:30.210Z,176
2023-01-02T13:17:12.664Z,176
2023-01-02T13:18:12.475Z,176
2023-01-02T13:19:12.444Z,176
2023-01-02T13:20:12.510Z,172
2023-01-02T13:21:12.387Z,172
2023-01-02T13:22:12.533Z,172
2023-01-02T13:23:12.450Z,172
2023-01-02T13:24:12.437Z,172
2023-01-02T13:25:12.466Z,172
2023-01-02T13:26:12.532Z,172
2023-01-02T13:27:15.518Z,172
2023-01-02T13:28:12.511Z,168
2023-01-02T13:29:12.487Z,172
2023-01-02T13:30:20.100Z,168
2023-01-02T13:31:53.091Z,168
2023-01-02T13:32:15.811Z,168
2023-01-02T13:33:12.467Z,168
2023-01-02T13:34:12.494Z,164
2023-01-02T13:35:12.432Z,160
2023-01-02T13:36:19.372Z,160
2023-01-02T13:37:12.735Z,152
2023-01-02T13:38:15.492Z,148
2023-01-02T13:39:12.572Z,136
2023-01-02T13:40:12.511Z,124
2023-01-02T13:41:13.524Z,116
2023-01-02T13:42:16.548Z,108
2023-01-02T13:43:14.234Z,100
2023-01-02T13:44:12.471Z,96
2023-01-02T13:45:12.497Z,100
2023-01-02T13:47:01.230Z,100
2023-01-02T13:47:15.382Z,100
2023-01-02T13:48:12.520Z,96
2023-01-02T13:49:15.142Z,92
2023-01-02T13:50:12.569Z,88
2023-01-02T13:51:12.739Z,80
2023-01-02T13:52:12.432Z,80
2023-01-02T13:53:12.603Z,76
2023-01-02T13:54:21.622Z,72
2023-01-02T13:55:12.464Z,68
2023-01-02T13:56:12.533Z,64
2023-01-02T13:57:12.621Z,64
2023-01-02T13:58:12.533Z,64
2023-01-02T13:59:51.765Z,60
2023-01-02T14:00:12.731Z,60
2023-01-02T14:01:12.623Z,60
2023-01-02T14:02:13.431Z,56
2023-01-02T14:03:12.985Z,52
2023-01-02T14:04:12.575Z,48
2023-01-02T14:05:12.545Z,44
2023-01-02T14:06:12.433Z,44
2023-01-02T14:07:12.518Z,44
2023-01-02T14:08:12.546Z,40
2023-01-02T14:09:12.638Z,40
2023-01-02T14:10:12.744Z,40
2023-01-02T14:11:12.526Z,40
2023-01-02T14:12:12.522Z,40
2023-01-02T14:13:12.583Z,40
2023-01-02T14:14:12.558Z,40
2023-01-02T14:15:12.519Z,36
2023-01-02T14:16:12.703Z,36
2023-01-02T14:17:12.550Z,40
2023-01-02T14:18:12.523Z,36
2023-01-02T14:19:12.567Z,40
2023-01-02T14:20:12.704Z,40
2023-01-02T14:21:15.717Z,40
2023-01-02T14:22:12.685Z,44
2023-01-02T14:23:12.514Z,40
2023-01-02T14:24:34.172Z,44
2023-01-02T14:25:12.598Z,44